Time;durP1;ratioP1;P1;durP2;ratioP2;P2;SDS_P1;SDS_P2;PMS_P1;PMS_P2;Temp;Humidity;BMP_temperature;BMP_pressure;BME280_temperature;BME280_humidity;BME280_pressure;Samples;Min_cycle;Max_cycle;Signal;HPM_P1;HPM_P2
2022/12/08 00:00:26;;;;;;;;;;;5.60;99.90;;;;;;5039528;28;19920;-63
2022/12/08 00:02:51;;;;;;;;;;;5.50;99.90;;;;;;5038349;28;19917;-63
2022/12/08 00:10:45;;;;;;;;;;;5.40;99.90;;;;;;5032637;28;20347;-63
2022/12/08 00:13:11;;;;;;;;;;;5.50;99.90;;;;;;5035895;28;19917;-63
2022/12/08 00:15:36;;;;;;;;;;;5.40;99.90;;;;;;5040261;28;19917;-63
2022/12/08 00:18:02;;;;;;;;;;;5.30;99.90;;;;;;5041290;28;19920;-63
2022/12/08 00:20:27;;;;;;;;;;;5.10;99.90;;;;;;5032598;28;19988;-63
2022/12/08 00:22:52;;;;;;;;;;;5.30;99.90;;;;;;5032918;28;20015;-63
2022/12/08 00:25:18;;;;;;;;;;;5.20;99.90;;;;;;5038442;28;19917;-63
2022/12/08 00:27:43;;;;;;;;;;;5.20;99.90;;;;;;5035818;28;19927;-63
2022/12/08 00:30:09;;;;;;;;;;;5.30;99.90;;;;;;5038034;28;19913;-63
2022/12/08 00:32:36;;;;;;;;;;;5.30;99.90;;;;;;5036703;28;20011;-63
2022/12/08 00:35:02;;;;;;;;;;;5.20;99.90;;;;;;5038097;28;20183;-63
2022/12/08 00:37:27;;;;;;;;;;;5.20;99.90;;;;;;5036459;28;20943;-64
2022/12/08 00:39:53;;;;;;;;;;;5.30;99.90;;;;;;5034690;28;19913;-63
2022/12/08 00:42:18;;;;;;;;;;;5.30;99.90;;;;;;5035836;28;20376;-63
2022/12/08 00:44:44;;;;;;;;;;;5.20;99.90;;;;;;5034932;28;19921;-63
2022/12/08 00:47:10;;;;;;;;;;;5.10;99.90;;;;;;5032760;28;20012;-63
2022/12/08 00:49:36;;;;;;;;;;;5.10;99.90;;;;;;5039447;28;20054;-61
2022/12/08 00:52:01;;;;;;;;;;;5.10;99.90;;;;;;5037349;28;20597;-62
2022/12/08 00:54:27;;;;;;;;;;;5.10;99.90;;;;;;5038237;28;20331;-62
2022/12/08 00:56:53;;;;;;;;;;;5.20;99.90;;;;;;5040827;28;19917;-62
2022/12/08 00:59:18;;;;;;;;;;;5.30;99.90;;;;;;5041140;28;20368;-62
2022/12/08 01:01:44;;;;;;;;;;;5.40;99.90;;;;;;5042456;28;19925;-63
2022/12/08 01:04:11;;;;;;;;;;;5.40;99.90;;;;;;5044721;28;19992;-63
2022/12/08 01:06:37;;;;;;;;;;;5.40;99.90;;;;;;5039014;28;19917;-63
2022/12/08 01:09:04;;;;;;;;;;;5.50;99.90;;;;;;5041950;28;20017;-63
2022/12/08 01:11:30;;;;;;;;;;;5.50;99.90;;;;;;5041812;28;20030;-63
2022/12/08 01:13:55;;;;;;;;;;;5.40;99.90;;;;;;5040335;28;19916;-63
2022/12/08 01:16:22;;;;;;;;;;;5.30;99.90;;;;;;5032601;28;19925;-63
2022/12/08 01:18:48;;;;;;;;;;;5.10;99.90;;;;;;5042210;28;19920;-64
2022/12/08 01:21:13;;;;;;;;;;;5.30;99.90;;;;;;5036173;28;20260;-63
2022/12/08 01:23:39;;;;;;;;;;;5.10;99.90;;;;;;5036583;28;19940;-63
2022/12/08 01:26:05;;;;;;;;;;;5.10;99.90;;;;;;5041448;28;19917;-64
2022/12/08 01:28:31;;;;;;;;;;;5.20;99.90;;;;;;5043015;28;20003;-63
2022/12/08 01:30:57;;;;;;;;;;;5.20;99.90;;;;;;5038539;28;20470;-63
2022/12/08 01:33:22;;;;;;;;;;;5.20;99.90;;;;;;5038750;28;20323;-63
2022/12/08 01:35:48;;;;;;;;;;;5.20;99.90;;;;;;5039027;28;19954;-63
2022/12/08 01:38:13;;;;;;;;;;;5.10;99.90;;;;;;5037383;28;19983;-63
2022/12/08 01:40:39;;;;;;;;;;;5.10;99.90;;;;;;5038027;28;19917;-63
2022/12/08 01:43:04;;;;;;;;;;;5.00;99.90;;;;;;5039973;28;19971;-63
2022/12/08 01:45:31;;;;;;;;;;;5.10;99.90;;;;;;5035866;28;19921;-63
2022/12/08 01:47:58;;;;;;;;;;;5.10;99.90;;;;;;5035641;28;19917;-63
2022/12/08 01:50:25;;;;;;;;;;;5.10;99.90;;;;;;5035848;28;19920;-63
2022/12/08 01:52:55;;;;;;;;;;;5.20;99.90;;;;;;5037310;28;19917;-63
2022/12/08 01:55:23;;;;;;;;;;;5.20;99.90;;;;;;5037215;28;20504;-63
2022/12/08 01:57:55;;;;;;;;;;;5.20;99.90;;;;;;5036754;28;19913;-63
2022/12/08 02:00:21;;;;;;;;;;;5.20;99.90;;;;;;5036460;28;20570;-63
2022/12/08 02:02:55;;;;;;;;;;;5.20;99.90;;;;;;5037513;28;19913;-63
2022/12/08 02:05:23;;;;;;;;;;;5.30;99.90;;;;;;5034410;28;22171;-64
2022/12/08 02:07:49;;;;;;;;;;;5.30;99.90;;;;;;5034949;28;20497;-63
2022/12/08 02:10:16;;;;;;;;;;;5.30;99.90;;;;;;5033332;28;19913;-64
2022/12/08 02:12:41;;;;;;;;;;;5.30;99.90;;;;;;5033625;28;20511;-64
2022/12/08 02:15:07;;;;;;;;;;;5.20;99.90;;;;;;5037631;28;19964;-64
2022/12/08 02:17:32;;;;;;;;;;;5.20;99.90;;;;;;5035557;28;20277;-62
2022/12/08 02:20:21;;;;;;;;;;;5.30;99.90;;;;;;5037087;28;19921;-62
2022/12/08 02:22:53;;;;;;;;;;;5.20;99.90;;;;;;5039020;28;20329;-62
2022/12/08 02:25:30;;;;;;;;;;;5.20;99.90;;;;;;5034887;28;20004;-62
2022/12/08 02:28:14;;;;;;;;;;;5.40;99.90;;;;;;5035814;28;19952;-62
2022/12/08 02:30:55;;;;;;;;;;;5.30;99.90;;;;;;5035762;28;19923;-62
2022/12/08 02:33:26;;;;;;;;;;;5.40;99.90;;;;;;5035787;28;19921;-62
2022/12/08 02:35:55;;;;;;;;;;;5.40;99.90;;;;;;5041287;28;20468;-63
2022/12/08 02:38:20;;;;;;;;;;;5.40;99.90;;;;;;5037713;28;19924;-63
2022/12/08 02:41:00;;;;;;;;;;;5.40;99.90;;;;;;5036821;28;19913;-63
2022/12/08 02:43:33;;;;;;;;;;;5.30;99.90;;;;;;5036851;28;19987;-63
2022/12/08 02:46:00;;;;;;;;;;;5.30;99.90;;;;;;5040212;28;19913;-63
2022/12/08 02:48:29;;;;;;;;;;;5.30;99.90;;;;;;5037918;28;20384;-63
2022/12/08 02:50:55;;;;;;;;;;;5.40;99.90;;;;;;5039737;28;19920;-63
2022/12/08 02:53:20;;;;;;;;;;;5.30;99.90;;;;;;5041889;28;19917;-63
2022/12/08 02:56:06;;;;;;;;;;;5.40;99.90;;;;;;5041254;28;19913;-63
2022/12/08 02:59:04;;;;;;;;;;;5.30;99.90;;;;;;5038290;28;19928;-63
2022/12/08 03:01:39;;;;;;;;;;;5.30;99.90;;;;;;5029238;28;20521;-63
2022/12/08 03:04:04;;;;;;;;;;;5.40;99.90;;;;;;5041432;28;19920;-63
2022/12/08 03:06:29;;;;;;;;;;;5.50;99.90;;;;;;5037506;28;19923;-63
2022/12/08 03:08:55;;;;;;;;;;;5.50;99.90;;;;;;5036740;28;20080;-63
2022/12/08 03:11:27;;;;;;;;;;;5.50;99.90;;;;;;5036738;28;20017;-63
2022/12/08 03:13:55;;;;;;;;;;;5.40;99.90;;;;;;5037816;28;20164;-63
2022/12/08 03:16:22;;;;;;;;;;;5.50;99.90;;;;;;5039511;28;19917;-63
2022/12/08 03:18:51;;;;;;;;;;;5.50;99.90;;;;;;5027856;28;19952;-63
2022/12/08 03:21:18;;;;;;;;;;;5.50;99.90;;;;;;5035295;28;19956;-63
2022/12/08 03:23:45;;;;;;;;;;;5.40;99.90;;;;;;5037079;28;19966;-63
2022/12/08 03:26:16;;;;;;;;;;;5.40;99.90;;;;;;5036477;28;19912;-63
2022/12/08 03:28:41;;;;;;;;;;;5.50;99.90;;;;;;5031203;28;20377;-63
2022/12/08 03:31:10;;;;;;;;;;;5.50;99.90;;;;;;5036213;28;19987;-63
2022/12/08 03:33:37;;;;;;;;;;;5.50;99.90;;;;;;5039963;28;19916;-63
2022/12/08 03:36:03;;;;;;;;;;;5.50;99.90;;;;;;5036010;28;20628;-62
2022/12/08 03:38:36;;;;;;;;;;;5.50;99.90;;;;;;5043260;28;19999;-63
2022/12/08 03:41:17;;;;;;;;;;;5.50;99.90;;;;;;5034749;28;19919;-63
2022/12/08 03:43:43;;;;;;;;;;;5.50;99.90;;;;;;5039502;28;19924;-63
2022/12/08 03:46:08;;;;;;;;;;;5.50;99.90;;;;;;5034104;28;19916;-63
2022/12/08 03:48:34;;;;;;;;;;;5.60;99.90;;;;;;5034957;28;19917;-63
2022/12/08 03:50:59;;;;;;;;;;;5.50;99.90;;;;;;5033661;28;19920;-63
2022/12/08 03:53:25;;;;;;;;;;;5.60;99.90;;;;;;5040762;28;19920;-63
2022/12/08 03:55:51;;;;;;;;;;;5.60;99.90;;;;;;5035765;28;20395;-63
2022/12/08 03:58:17;;;;;;;;;;;5.70;99.90;;;;;;5035729;28;20404;-63
2022/12/08 04:00:42;;;;;;;;;;;5.60;99.90;;;;;;5037894;28;19927;-63
2022/12/08 04:03:08;;;;;;;;;;;5.60;99.90;;;;;;5035752;28;19920;-63
2022/12/08 04:05:33;;;;;;;;;;;5.50;99.90;;;;;;5040839;28;19940;-63
2022/12/08 04:07:59;;;;;;;;;;;5.50;99.90;;;;;;5034809;28;20343;-63
2022/12/08 04:10:25;;;;;;;;;;;5.50;99.90;;;;;;5034610;28;19991;-63
2022/12/08 04:12:50;;;;;;;;;;;5.50;99.90;;;;;;5034487;28;19917;-63
2022/12/08 04:15:16;;;;;;;;;;;5.60;99.90;;;;;;5034706;28;19920;-63
2022/12/08 04:17:41;;;;;;;;;;;5.50;99.90;;;;;;5037619;28;20019;-62
2022/12/08 04:20:07;;;;;;;;;;;5.40;99.90;;;;;;5030699;28;19928;-62
2022/12/08 04:22:32;;;;;;;;;;;5.50;99.90;;;;;;5035352;28;19979;-62
2022/12/08 04:24:58;;;;;;;;;;;5.50;99.90;;;;;;5030315;28;20098;-63
2022/12/08 04:27:23;;;;;;;;;;;5.40;99.90;;;;;;5038386;28;19913;-63
2022/12/08 04:29:49;;;;;;;;;;;5.50;99.90;;;;;;5034340;28;19913;-63
2022/12/08 04:32:14;;;;;;;;;;;5.50;99.90;;;;;;5034290;28;19925;-63
2022/12/08 04:34:40;;;;;;;;;;;5.70;99.90;;;;;;5035762;28;19992;-63
2022/12/08 04:37:05;;;;;;;;;;;5.60;99.90;;;;;;5031935;28;19913;-62
2022/12/08 04:39:31;;;;;;;;;;;5.60;99.90;;;;;;5035986;28;20277;-63
2022/12/08 04:41:56;;;;;;;;;;;5.50;99.90;;;;;;5033311;28;19916;-62
2022/12/08 04:44:22;;;;;;;;;;;5.50;99.90;;;;;;5035296;28;20364;-62
2022/12/08 04:46:47;;;;;;;;;;;5.40;99.90;;;;;;5033078;28;19921;-63
2022/12/08 04:49:12;;;;;;;;;;;5.40;99.90;;;;;;5032176;28;19958;-62
2022/12/08 04:51:38;;;;;;;;;;;5.40;99.90;;;;;;5030041;28;20004;-62
2022/12/08 04:54:03;;;;;;;;;;;5.40;99.90;;;;;;5036037;28;19913;-62
2022/12/08 04:56:29;;;;;;;;;;;5.40;99.90;;;;;;5032568;28;19959;-62
2022/12/08 04:58:54;;;;;;;;;;;5.40;99.90;;;;;;5033949;28;19924;-62
2022/12/08 05:01:20;;;;;;;;;;;5.40;99.90;;;;;;5038351;28;19919;-62
2022/12/08 05:03:45;;;;;;;;;;;5.30;99.90;;;;;;5041900;28;20283;-63
2022/12/08 05:06:12;;;;;;;;;;;5.30;99.90;;;;;;5033498;28;19989;-63
2022/12/08 05:08:37;;;;;;;;;;;5.40;99.90;;;;;;5033168;28;19917;-62
2022/12/08 05:11:04;;;;;;;;;;;5.30;99.90;;;;;;5032846;28;19917;-62
2022/12/08 05:13:29;;;;;;;;;;;5.30;99.90;;;;;;5030866;28;20268;-62
2022/12/08 05:16:00;;;;;;;;;;;5.40;99.90;;;;;;5034814;28;19924;-63
2022/12/08 05:18:26;;;;;;;;;;;5.50;99.90;;;;;;5037216;28;20253;-63
2022/12/08 05:20:51;;;;;;;;;;;5.50;99.90;;;;;;5038881;28;19974;-63
2022/12/08 05:23:17;;;;;;;;;;;5.40;99.90;;;;;;5038275;28;20304;-62
2022/12/08 05:25:44;;;;;;;;;;;5.50;99.90;;;;;;5038306;28;20404;-62
2022/12/08 05:28:09;;;;;;;;;;;5.40;99.90;;;;;;5037337;28;19919;-62
2022/12/08 05:30:35;;;;;;;;;;;5.40;99.90;;;;;;5038797;28;20343;-62
2022/12/08 05:33:00;;;;;;;;;;;5.30;99.90;;;;;;5037902;28;19912;-63
2022/12/08 05:35:26;;;;;;;;;;;5.40;99.90;;;;;;5036529;28;19975;-62
2022/12/08 05:37:52;;;;;;;;;;;5.40;99.90;;;;;;5041082;28;19913;-61
2022/12/08 05:40:18;;;;;;;;;;;5.40;99.90;;;;;;5037712;28;19924;-62
2022/12/08 05:42:43;;;;;;;;;;;5.40;99.90;;;;;;5036751;28;20483;-62
2022/12/08 05:45:09;;;;;;;;;;;5.50;99.90;;;;;;5036700;28;19916;-62
2022/12/08 05:47:34;;;;;;;;;;;5.40;99.90;;;;;;5038185;28;19999;-62
2022/12/08 05:50:00;;;;;;;;;;;5.40;99.90;;;;;;5038651;28;20004;-62
2022/12/08 05:52:26;;;;;;;;;;;5.40;99.90;;;;;;5036251;28;19921;-62
2022/12/08 05:54:52;;;;;;;;;;;5.50;99.90;;;;;;5036627;28;19920;-62
2022/12/08 05:57:17;;;;;;;;;;;5.50;99.90;;;;;;5037073;28;19924;-62
2022/12/08 05:59:43;;;;;;;;;;;5.40;99.90;;;;;;5030833;28;19992;-63
2022/12/08 06:02:08;;;;;;;;;;;5.50;99.90;;;;;;5036208;28;19917;-63
2022/12/08 06:04:34;;;;;;;;;;;5.50;99.90;;;;;;5038982;28;19920;-63
2022/12/08 06:07:00;;;;;;;;;;;5.50;99.90;;;;;;5036109;28;19999;-63
2022/12/08 06:09:25;;;;;;;;;;;5.50;99.90;;;;;;5040360;28;20444;-62
2022/12/08 06:11:51;;;;;;;;;;;5.40;99.90;;;;;;5038635;28;19943;-62
2022/12/08 06:14:16;;;;;;;;;;;5.30;99.90;;;;;;5042207;28;20430;-62
2022/12/08 06:16:42;;;;;;;;;;;5.30;99.90;;;;;;5042805;28;20034;-62
2022/12/08 06:19:07;;;;;;;;;;;5.30;99.90;;;;;;5041462;28;19920;-62
2022/12/08 06:21:33;;;;;;;;;;;5.30;99.90;;;;;;5041442;28;19970;-63
2022/12/08 06:23:58;;;;;;;;;;;5.40;99.90;;;;;;5045786;28;20340;-63
2022/12/08 06:26:24;;;;;;;;;;;5.30;99.90;;;;;;5040669;28;19923;-62
2022/12/08 06:28:49;;;;;;;;;;;5.40;99.90;;;;;;5042096;28;19913;-62
2022/12/08 06:31:16;;;;;;;;;;;5.20;99.90;;;;;;5038780;28;19917;-62
2022/12/08 06:33:42;;;;;;;;;;;5.20;99.90;;;;;;5041413;28;19912;-66
2022/12/08 06:36:08;;;;;;;;;;;5.20;99.90;;;;;;5037867;28;19921;-62
2022/12/08 06:38:34;;;;;;;;;;;5.10;99.90;;;;;;5040270;28;19952;-62
2022/12/08 06:40:59;;;;;;;;;;;5.20;99.90;;;;;;5043091;28;19956;-63
2022/12/08 06:43:25;;;;;;;;;;;5.10;99.90;;;;;;5038708;28;19962;-63
2022/12/08 06:45:51;;;;;;;;;;;5.10;99.90;;;;;;5040246;28;20013;-63
2022/12/08 06:48:17;;;;;;;;;;;5.10;99.90;;;;;;5040561;28;20360;-61
2022/12/08 06:50:42;;;;;;;;;;;5.20;99.90;;;;;;5040080;28;19914;-62
2022/12/08 06:53:10;;;;;;;;;;;5.20;99.90;;;;;;5036361;28;19952;-61
2022/12/08 06:55:35;;;;;;;;;;;5.30;99.90;;;;;;5038227;28;19916;-62
2022/12/08 06:58:01;;;;;;;;;;;5.10;99.90;;;;;;5040812;28;19924;-63
2022/12/08 07:00:26;;;;;;;;;;;5.00;99.90;;;;;;5036719;28;19923;-63
2022/12/08 07:02:52;;;;;;;;;;;5.00;99.90;;;;;;5039083;28;20500;-63
2022/12/08 07:05:17;;;;;;;;;;;5.10;99.90;;;;;;5039030;28;20020;-62
2022/12/08 07:07:43;;;;;;;;;;;5.00;99.90;;;;;;5039743;28;19921;-62
2022/12/08 07:10:08;;;;;;;;;;;4.90;99.90;;;;;;5038728;28;19924;-62
2022/12/08 07:12:34;;;;;;;;;;;5.00;99.90;;;;;;5040238;28;20357;-63
2022/12/08 07:14:59;;;;;;;;;;;5.00;99.90;;;;;;5035215;28;19924;-63
2022/12/08 07:17:24;;;;;;;;;;;5.00;99.90;;;;;;5034594;28;19916;-64
2022/12/08 07:19:50;;;;;;;;;;;4.80;99.90;;;;;;5033875;28;20012;-62
2022/12/08 07:22:15;;;;;;;;;;;4.80;99.90;;;;;;5036056;28;19995;-63
2022/12/08 07:24:41;;;;;;;;;;;4.80;99.90;;;;;;5039478;28;20051;-63
2022/12/08 07:27:06;;;;;;;;;;;4.80;99.90;;;;;;5038057;28;19920;-62
2022/12/08 07:29:32;;;;;;;;;;;4.80;99.90;;;;;;5040309;28;19921;-63
2022/12/08 07:31:57;;;;;;;;;;;4.90;99.90;;;;;;5042616;28;19983;-63
2022/12/08 07:34:23;;;;;;;;;;;5.00;99.90;;;;;;5036812;28;19918;-62
2022/12/08 07:36:48;;;;;;;;;;;5.00;99.90;;;;;;5034967;28;19922;-63
2022/12/08 07:39:14;;;;;;;;;;;4.90;99.90;;;;;;5039775;28;19944;-63
2022/12/08 07:41:39;;;;;;;;;;;4.90;99.90;;;;;;5035828;28;20020;-63
2022/12/08 07:44:05;;;;;;;;;;;4.80;99.90;;;;;;5034542;28;19925;-69
2022/12/08 07:46:30;;;;;;;;;;;4.90;99.90;;;;;;5037619;28;20485;-63
2022/12/08 07:48:56;;;;;;;;;;;4.90;99.90;;;;;;5041293;28;19920;-63
2022/12/08 07:51:21;;;;;;;;;;;4.90;99.90;;;;;;5036271;28;19931;-63
2022/12/08 07:53:48;;;;;;;;;;;4.90;99.90;;;;;;5038745;28;20496;-63
2022/12/08 07:56:13;;;;;;;;;;;5.00;99.90;;;;;;5038712;28;20280;-63
2022/12/08 07:58:39;;;;;;;;;;;4.90;99.90;;;;;;5040149;28;19931;-63
2022/12/08 08:01:05;;;;;;;;;;;5.00;99.90;;;;;;5035981;28;20565;-61
2022/12/08 08:03:31;;;;;;;;;;;5.00;99.90;;;;;;5035754;28;19948;-61
2022/12/08 08:06:03;;;;;;;;;;;4.90;99.90;;;;;;5037075;28;19978;-62
2022/12/08 08:08:28;;;;;;;;;;;4.80;99.90;;;;;;5038507;28;19913;-62
2022/12/08 08:10:54;;;;;;;;;;;4.80;99.90;;;;;;5033652;28;20118;-62
2022/12/08 08:13:19;;;;;;;;;;;4.80;99.90;;;;;;5038617;28;19912;-62
2022/12/08 08:15:45;;;;;;;;;;;4.80;99.90;;;;;;5040670;28;19921;-62
2022/12/08 08:18:10;;;;;;;;;;;4.70;99.90;;;;;;5036983;28;19974;-62
2022/12/08 08:20:36;;;;;;;;;;;4.80;99.90;;;;;;5032712;28;20503;-62
2022/12/08 08:23:01;;;;;;;;;;;4.80;99.90;;;;;;5039082;28;20303;-62
2022/12/08 08:25:27;;;;;;;;;;;4.80;99.90;;;;;;5037031;28;20355;-62
2022/12/08 08:27:53;;;;;;;;;;;4.90;99.90;;;;;;5036283;28;20314;-62
2022/12/08 08:30:18;;;;;;;;;;;4.90;99.90;;;;;;5036942;28;19921;-62
2022/12/08 08:32:44;;;;;;;;;;;4.80;99.90;;;;;;5034975;28;19967;-62
2022/12/08 08:35:09;;;;;;;;;;;4.80;99.90;;;;;;5035106;28;19923;-63
2022/12/08 08:37:35;;;;;;;;;;;4.90;99.90;;;;;;5033620;28;20094;-63
2022/12/08 08:40:00;;;;;;;;;;;4.90;99.90;;;;;;5036824;28;19920;-63
2022/12/08 08:42:26;;;;;;;;;;;5.00;99.90;;;;;;5036847;28;20043;-63
2022/12/08 08:44:51;;;;;;;;;;;5.00;99.90;;;;;;5037069;28;19917;-63
2022/12/08 08:47:17;;;;;;;;;;;5.20;99.90;;;;;;5035319;28;19948;-63
2022/12/08 08:49:42;;;;;;;;;;;5.20;99.90;;;;;;5035186;28;20078;-63
2022/12/08 08:52:08;;;;;;;;;;;5.10;99.90;;;;;;5034062;28;19924;-63
2022/12/08 08:54:34;;;;;;;;;;;5.20;99.90;;;;;;5035744;28;20248;-63
2022/12/08 08:57:00;;;;;;;;;;;5.10;99.90;;;;;;5036212;28;19917;-64
2022/12/08 08:59:26;;;;;;;;;;;5.00;99.90;;;;;;5036579;28;20030;-64
2022/12/08 09:01:52;;;;;;;;;;;5.10;99.90;;;;;;5033375;28;19924;-64
2022/12/08 09:04:17;;;;;;;;;;;5.10;99.90;;;;;;5035985;28;19920;-65
2022/12/08 09:06:44;;;;;;;;;;;5.20;99.90;;;;;;5042425;28;20346;-65
2022/12/08 09:09:09;;;;;;;;;;;5.30;99.90;;;;;;5023618;28;19919;-65
2022/12/08 09:11:35;;;;;;;;;;;5.20;99.90;;;;;;5043209;28;19917;-65
2022/12/08 09:14:01;;;;;;;;;;;5.30;99.90;;;;;;5036548;28;19948;-64
2022/12/08 09:16:26;;;;;;;;;;;5.30;99.90;;;;;;5036872;28;20419;-64
2022/12/08 09:18:52;;;;;;;;;;;5.30;99.90;;;;;;5038979;28;19913;-63
2022/12/08 09:21:21;;;;;;;;;;;5.30;99.90;;;;;;5034667;28;20305;-64
2022/12/08 09:23:51;;;;;;;;;;;5.40;99.90;;;;;;5043144;28;19916;-64
2022/12/08 09:26:17;;;;;;;;;;;5.40;99.90;;;;;;5036113;28;19917;-63
2022/12/08 09:28:45;;;;;;;;;;;5.40;99.90;;;;;;5039438;28;20796;-64
2022/12/08 09:31:13;;;;;;;;;;;5.20;99.90;;;;;;5035056;28;20330;-64
2022/12/08 09:33:39;;;;;;;;;;;5.20;99.90;;;;;;5042695;28;19912;-64
2022/12/08 09:36:04;;;;;;;;;;;5.20;99.90;;;;;;5032156;28;20546;-64
2022/12/08 09:38:30;;;;;;;;;;;5.10;99.90;;;;;;5036757;28;19917;-65
2022/12/08 09:40:56;;;;;;;;;;;5.10;99.90;;;;;;5037630;28;19948;-64
2022/12/08 09:43:44;;;;;;;;;;;5.10;99.90;;;;;;5036607;28;19971;-64
2022/12/08 09:46:12;;;;;;;;;;;5.10;99.90;;;;;;5037250;28;19925;-64
2022/12/08 09:48:41;;;;;;;;;;;5.10;99.90;;;;;;5037962;28;19913;-64
2022/12/08 09:51:07;;;;;;;;;;;5.10;99.90;;;;;;5036386;28;20623;-64
2022/12/08 09:53:32;;;;;;;;;;;5.10;99.90;;;;;;5038129;28;20335;-64
2022/12/08 09:56:00;;;;;;;;;;;5.10;99.90;;;;;;5038515;28;19917;-64
2022/12/08 09:58:38;;;;;;;;;;;5.10;99.90;;;;;;5037255;28;20007;-66
2022/12/08 10:01:03;;;;;;;;;;;5.20;99.90;;;;;;5033878;28;20007;-64
2022/12/08 10:03:29;;;;;;;;;;;5.10;99.90;;;;;;5038974;28;20004;-64
2022/12/08 10:05:59;;;;;;;;;;;5.10;99.90;;;;;;5037916;28;19921;-64
2022/12/08 10:08:29;;;;;;;;;;;5.10;99.90;;;;;;5034752;28;19923;-64
2022/12/08 10:10:57;;;;;;;;;;;5.30;99.90;;;;;;5036150;28;19913;-64
2022/12/08 10:13:45;;;;;;;;;;;5.10;99.90;;;;;;5037085;28;19985;-64
2022/12/08 10:16:17;;;;;;;;;;;5.10;99.90;;;;;;5034970;28;19916;-64
2022/12/08 10:18:42;;;;;;;;;;;5.20;99.90;;;;;;5036879;28;19921;-64
2022/12/08 10:21:14;;;;;;;;;;;5.30;99.90;;;;;;5034273;28;20025;-64
2022/12/08 10:23:41;;;;;;;;;;;5.30;99.90;;;;;;5036422;28;20650;-64
2022/12/08 10:26:10;;;;;;;;;;;5.40;99.90;;;;;;5035904;28;19973;-64
2022/12/08 10:28:36;;;;;;;;;;;5.40;99.90;;;;;;5034728;28;19925;-64
2022/12/08 10:31:01;;;;;;;;;;;5.50;99.90;;;;;;5034437;28;19917;-64
2022/12/08 10:33:29;;;;;;;;;;;5.50;99.90;;;;;;5038157;28;19912;-64
2022/12/08 10:36:01;;;;;;;;;;;5.50;99.90;;;;;;5037890;28;20376;-64
2022/12/08 10:38:34;;;;;;;;;;;5.50;99.90;;;;;;5033728;28;20408;-64
2022/12/08 10:41:03;;;;;;;;;;;5.50;99.90;;;;;;5036020;28;19952;-64
2022/12/08 10:43:29;;;;;;;;;;;5.50;99.90;;;;;;5035751;28;20334;-64
2022/12/08 10:46:06;;;;;;;;;;;5.60;99.90;;;;;;5036800;28;19925;-65
2022/12/08 10:48:32;;;;;;;;;;;5.60;99.90;;;;;;5033830;28;20422;-64
2022/12/08 10:50:58;;;;;;;;;;;5.50;99.90;;;;;;5033239;28;19924;-64
2022/12/08 10:53:31;;;;;;;;;;;5.60;99.90;;;;;;5036381;28;20351;-64
2022/12/08 10:55:56;;;;;;;;;;;5.60;99.90;;;;;;5038270;28;19924;-65
2022/12/08 10:58:26;;;;;;;;;;;5.50;99.90;;;;;;5038318;28;20120;-64
2022/12/08 11:01:12;;;;;;;;;;;5.50;99.90;;;;;;5039831;28;19916;-65
2022/12/08 11:03:42;;;;;;;;;;;5.50;99.90;;;;;;5048105;28;19979;-64
2022/12/08 11:06:16;;;;;;;;;;;5.40;99.90;;;;;;5035965;28;19979;-64
2022/12/08 11:08:52;;;;;;;;;;;5.50;99.90;;;;;;5037879;28;19920;-64
2022/12/08 11:11:19;;;;;;;;;;;5.50;99.90;;;;;;5040604;28;19917;-68
2022/12/08 11:13:46;;;;;;;;;;;5.60;99.90;;;;;;5038686;28;19917;-65
2022/12/08 11:16:13;;;;;;;;;;;5.50;99.90;;;;;;5035561;28;20042;-64
2022/12/08 11:18:40;;;;;;;;;;;5.50;99.90;;;;;;5038670;28;20349;-64
2022/12/08 11:21:16;;;;;;;;;;;5.60;99.90;;;;;;5037195;28;20009;-65
2022/12/08 11:23:45;;;;;;;;;;;5.60;99.90;;;;;;5034399;28;19928;-65
2022/12/08 11:26:22;;;;;;;;;;;5.50;99.90;;;;;;5040194;28;20425;-68
2022/12/08 11:28:48;;;;;;;;;;;5.60;99.90;;;;;;5034970;28;19921;-65
2022/12/08 11:31:19;;;;;;;;;;;5.40;99.90;;;;;;5035963;28;19964;-64
2022/12/08 11:33:45;;;;;;;;;;;5.50;99.90;;;;;;5038191;28;20586;-64
2022/12/08 11:36:13;;;;;;;;;;;5.60;99.90;;;;;;5034066;28;19921;-64
2022/12/08 11:38:40;;;;;;;;;;;5.70;99.90;;;;;;5035965;28;20008;-64
2022/12/08 11:41:15;;;;;;;;;;;5.70;99.90;;;;;;5037792;28;20540;-63
2022/12/08 11:43:59;;;;;;;;;;;5.80;99.90;;;;;;5046080;28;20020;-63
2022/12/08 11:46:35;;;;;;;;;;;5.60;99.90;;;;;;5037600;28;20004;-63
2022/12/08 11:49:00;;;;;;;;;;;5.60;99.90;;;;;;5035545;28;19983;-63
2022/12/08 11:51:33;;;;;;;;;;;5.50;99.90;;;;;;5035019;28;19948;-63
2022/12/08 11:54:02;;;;;;;;;;;5.60;99.90;;;;;;5038386;28;19948;-63
2022/12/08 11:56:31;;;;;;;;;;;5.50;99.90;;;;;;5038477;28;20713;-63
2022/12/08 11:58:59;;;;;;;;;;;5.50;99.90;;;;;;5032103;28;20384;-64
2022/12/08 12:01:25;;;;;;;;;;;5.40;99.90;;;;;;5034943;28;19921;-63
2022/12/08 12:04:00;;;;;;;;;;;5.40;99.90;;;;;;5039619;28;19973;-64
2022/12/08 12:06:48;;;;;;;;;;;5.40;99.90;;;;;;5033933;28;20409;-63
2022/12/08 12:09:18;;;;;;;;;;;5.20;99.90;;;;;;5036041;28;20493;-63
2022/12/08 12:12:15;;;;;;;;;;;5.40;99.90;;;;;;5038671;28;19952;-63
2022/12/08 12:14:45;;;;;;;;;;;5.40;99.90;;;;;;5032890;28;19992;-64
2022/12/08 12:17:29;;;;;;;;;;;5.50;99.90;;;;;;5033687;28;20359;-62
2022/12/08 12:19:57;;;;;;;;;;;5.50;99.90;;;;;;5042861;28;20366;-62
2022/12/08 12:22:33;;;;;;;;;;;5.40;99.90;;;;;;5035274;28;19925;-62
2022/12/08 12:24:58;;;;;;;;;;;5.30;99.90;;;;;;5037204;28;19936;-62
2022/12/08 12:27:28;;;;;;;;;;;5.30;99.90;;;;;;5041935;28;19913;-61
2022/12/08 12:29:58;;;;;;;;;;;5.40;99.90;;;;;;5038269;28;19940;-62
2022/12/08 12:32:25;;;;;;;;;;;5.50;99.90;;;;;;5035051;28;19921;-63
2022/12/08 12:34:59;;;;;;;;;;;5.60;99.90;;;;;;5037400;28;20661;-62
2022/12/08 12:37:44;;;;;;;;;;;5.50;99.90;;;;;;5034991;28;19944;-62
2022/12/08 12:40:10;;;;;;;;;;;5.60;99.90;;;;;;5035393;28;19916;-62
2022/12/08 12:42:43;;;;;;;;;;;5.70;99.90;;;;;;5033979;28;19913;-62
2022/12/08 12:45:29;;;;;;;;;;;5.70;99.90;;;;;;5042525;28;20515;-62
2022/12/08 12:47:54;;;;;;;;;;;5.50;99.90;;;;;;5035402;28;20204;-62
2022/12/08 12:50:32;;;;;;;;;;;5.40;99.90;;;;;;5031622;28;20212;-62
2022/12/08 12:53:17;;;;;;;;;;;5.30;99.90;;;;;;5037745;28;19916;-62
2022/12/08 12:55:56;;;;;;;;;;;5.30;99.90;;;;;;5025313;28;19917;-62
2022/12/08 12:58:22;;;;;;;;;;;5.20;99.90;;;;;;5031778;28;19967;-62
2022/12/08 13:00:47;;;;;;;;;;;5.20;99.90;;;;;;5040526;28;19916;-62
2022/12/08 13:03:15;;;;;;;;;;;5.10;99.90;;;;;;5037342;28;19921;-62
2022/12/08 13:05:48;;;;;;;;;;;5.10;99.90;;;;;;5034368;28;20348;-62
2022/12/08 13:08:20;;;;;;;;;;;5.10;99.90;;;;;;5033570;28;19917;-62
2022/12/08 13:10:59;;;;;;;;;;;5.10;99.90;;;;;;5033706;28;20449;-62
2022/12/08 13:13:25;;;;;;;;;;;5.10;99.90;;;;;;5029357;28;19913;-62
2022/12/08 13:16:13;;;;;;;;;;;5.20;99.90;;;;;;5031322;28;20679;-62
2022/12/08 13:18:40;;;;;;;;;;;5.20;99.90;;;;;;5047556;28;20015;-63
2022/12/08 13:21:09;;;;;;;;;;;5.10;99.90;;;;;;5055569;28;20471;-62
2022/12/08 13:23:37;;;;;;;;;;;4.90;99.90;;;;;;5051269;28;19913;-62
2022/12/08 13:26:11;;;;;;;;;;;5.10;99.90;;;;;;5054158;28;20543;-62
2022/12/08 13:28:55;;;;;;;;;;;5.00;99.90;;;;;;5056676;28;20003;-62
2022/12/08 13:31:40;;;;;;;;;;;4.70;99.90;;;;;;5048508;28;20417;-61
2022/12/08 13:34:09;;;;;;;;;;;4.70;99.90;;;;;;5056140;28;19913;-62
2022/12/08 13:36:37;;;;;;;;;;;4.90;99.90;;;;;;5053301;28;19920;-61
2022/12/08 13:39:03;;;;;;;;;;;4.90;99.90;;;;;;5052946;28;19919;-62
2022/12/08 13:41:37;;;;;;;;;;;4.80;99.90;;;;;;5051418;28;20031;-62
2022/12/08 13:44:04;;;;;;;;;;;4.70;99.90;;;;;;5059024;28;20308;-62
2022/12/08 13:46:50;;;;;;;;;;;4.60;99.90;;;;;;5057403;28;19924;-62
2022/12/08 13:49:17;;;;;;;;;;;4.60;99.90;;;;;;5056067;28;20364;-62
2022/12/08 13:51:45;;;;;;;;;;;4.80;99.90;;;;;;5057688;28;19916;-61
2022/12/08 13:54:40;;;;;;;;;;;4.90;99.90;;;;;;5054111;28;20410;-61
2022/12/08 13:57:06;;;;;;;;;;;5.00;99.90;;;;;;5041881;28;19921;-61
2022/12/08 13:59:33;;;;;;;;;;;5.00;99.90;;;;;;5056269;28;19938;-62
2022/12/08 14:02:21;;;;;;;;;;;4.90;99.90;;;;;;5054421;28;20549;-62
2022/12/08 14:04:46;;;;;;;;;;;5.10;99.90;;;;;;5054763;28;19928;-62
2022/12/08 14:07:12;;;;;;;;;;;5.10;99.90;;;;;;5056332;28;20493;-62
2022/12/08 14:09:38;;;;;;;;;;;5.20;99.90;;;;;;5057960;28;20493;-62
2022/12/08 14:12:23;;;;;;;;;;;5.00;99.90;;;;;;5060562;28;19953;-62
2022/12/08 14:14:50;;;;;;;;;;;5.00;99.90;;;;;;5051754;28;19935;-62
2022/12/08 14:17:17;;;;;;;;;;;5.00;99.90;;;;;;5056754;28;19931;-62
2022/12/08 14:19:44;;;;;;;;;;;5.10;99.90;;;;;;5061683;28;19916;-62
2022/12/08 14:22:14;;;;;;;;;;;5.00;99.90;;;;;;5052590;28;19928;-63
2022/12/08 14:24:43;;;;;;;;;;;4.90;99.90;;;;;;5050805;28;20551;-62
2022/12/08 14:27:12;;;;;;;;;;;4.90;99.90;;;;;;5048558;28;19912;-62
2022/12/08 14:29:51;;;;;;;;;;;4.90;99.90;;;;;;5059273;28;19916;-62
2022/12/08 14:32:19;;;;;;;;;;;4.90;99.90;;;;;;5060595;28;20503;-62
2022/12/08 14:34:49;;;;;;;;;;;4.80;99.90;;;;;;5060048;28;19971;-62
2022/12/08 14:37:14;;;;;;;;;;;4.90;99.90;;;;;;5055630;28;19951;-62
2022/12/08 14:39:40;;;;;;;;;;;5.00;99.90;;;;;;5057598;28;19952;-62
2022/12/08 14:42:06;;;;;;;;;;;4.80;99.90;;;;;;5058410;28;19919;-62